Time;durP1;ratioP1;P1;durP2;ratioP2;P2;SDS_P1;SDS_P2;PMS_P1;PMS_P2;Temp;Humidity;BMP_temperature;BMP_pressure;BME280_temperature;BME280_humidity;BME280_pressure;Samples;Min_cycle;Max_cycle;Signal;HPM_P1;HPM_P2
2023/07/11 00:01:41;;;;;;;5.47;3.27;;;;;;;16.30;100.00;101957.34;4973674;28;20678;-74
2023/07/11 00:04:06;;;;;;;5.83;3.37;;;;;;;16.24;100.00;101963.28;4989567;28;20647;-74
2023/07/11 00:06:32;;;;;;;6.07;3.10;;;;;;;16.21;100.00;101957.19;4990724;28;20209;-74
2023/07/11 00:08:57;;;;;;;4.37;3.20;;;;;;;16.20;100.00;101955.44;4991824;28;20215;-74
2023/07/11 00:11:24;;;;;;;6.03;3.50;;;;;;;16.17;100.00;101955.41;4985960;28;20230;-74
2023/07/11 00:13:50;;;;;;;6.33;3.60;;;;;;;16.16;100.00;101951.09;4981057;28;20432;-75
2023/07/11 00:16:17;;;;;;;8.63;3.93;;;;;;;16.13;100.00;101948.44;4975180;28;20737;-74
2023/07/11 00:18:44;;;;;;;6.67;3.93;;;;;;;16.05;100.00;101960.38;4980016;28;20547;-74
2023/07/11 00:21:10;;;;;;;6.50;3.83;;;;;;;16.05;100.00;101955.22;4986078;28;20195;-74
2023/07/11 00:23:35;;;;;;;7.03;3.60;;;;;;;16.02;100.00;101961.22;4999045;28;20224;-74
2023/07/11 00:26:01;;;;;;;5.87;3.60;;;;;;;15.93;100.00;101949.88;4991721;28;20206;-74
2023/07/11 00:28:26;;;;;;;4.50;3.70;;;;;;;15.97;100.00;101956.84;4985183;28;20646;-75
2023/07/11 00:30:53;;;;;;;6.93;4.17;;;;;;;16.10;100.00;101950.97;4988417;28;20191;-74
2023/07/11 00:33:19;;;;;;;7.10;3.90;;;;;;;16.09;100.00;101957.88;4983294;28;20562;-74
2023/07/11 00:35:50;;;;;;;6.90;3.40;;;;;;;16.06;100.00;101955.25;4986889;28;20736;-74
2023/07/11 00:38:16;;;;;;;5.87;3.77;;;;;;;15.99;100.00;101950.84;4991641;28;20184;-74
2023/07/11 00:40:43;;;;;;;6.10;3.67;;;;;;;15.93;100.00;101953.31;4979467;28;20695;-74
2023/07/11 00:43:12;;;;;;;8.73;3.67;;;;;;;15.92;100.00;101959.34;4984014;28;21247;-74
2023/07/11 00:46:04;;;;;;;5.97;3.60;;;;;;;15.90;100.00;101948.13;4968586;28;20763;-74
2023/07/11 00:48:34;;;;;;;6.40;3.27;;;;;;;15.92;100.00;101945.53;4973406;28;20196;-75
2023/07/11 00:51:00;;;;;;;6.70;3.90;;;;;;;15.91;100.00;101939.53;4989969;28;20251;-74
2023/07/11 00:53:28;;;;;;;7.83;3.67;;;;;;;15.91;100.00;101947.28;4984143;28;20275;-74
2023/07/11 00:55:57;;;;;;;8.20;4.20;;;;;;;15.96;100.00;101937.00;4984028;28;20562;-75
2023/07/11 00:58:25;;;;;;;7.00;3.90;;;;;;;15.93;100.00;101942.13;4970913;28;20744;-74
2023/07/11 01:00:50;;;;;;;6.23;3.70;;;;;;;15.96;100.00;101937.00;4978366;28;20207;-74
2023/07/11 01:03:17;;;;;;;5.60;3.53;;;;;;;15.90;100.00;101934.31;4986192;28;20191;-74
2023/07/11 01:05:42;;;;;;;6.00;3.47;;;;;;;15.98;100.00;101927.56;4987328;28;20192;-74
2023/07/11 01:08:10;;;;;;;6.33;3.30;;;;;;;15.92;100.00;101932.63;4995556;28;20206;-74
2023/07/11 01:10:35;;;;;;;7.30;3.70;;;;;;;15.85;100.00;101931.69;4980769;28;20633;-74
2023/07/11 01:13:03;;;;;;;7.97;3.90;;;;;;;15.77;100.00;101925.53;4990107;28;20203;-75
2023/07/11 01:15:29;;;;;;;7.47;3.90;;;;;;;15.83;100.00;101915.28;4991084;28;20223;-74
2023/07/11 01:17:54;;;;;;;4.70;3.37;;;;;;;15.80;100.00;101919.53;4994621;28;20223;-75
2023/07/11 01:20:22;;;;;;;7.67;3.57;;;;;;;15.80;100.00;101914.38;4987793;28;20223;-74
2023/07/11 01:22:51;;;;;;;6.57;4.27;;;;;;;15.78;100.00;101910.88;4988929;28;20196;-74
2023/07/11 01:25:16;;;;;;;6.20;4.10;;;;;;;15.76;100.00;101915.16;4990484;28;20314;-74
2023/07/11 01:27:45;;;;;;;8.47;4.60;;;;;;;15.78;100.00;101904.00;4984055;28;20291;-74
2023/07/11 01:30:13;;;;;;;7.53;4.50;;;;;;;15.74;100.00;101909.13;4984766;28;20730;-74
2023/07/11 01:32:39;;;;;;;6.57;4.30;;;;;;;15.66;100.00;101908.97;4984371;28;20207;-74
2023/07/11 01:35:05;;;;;;;5.67;3.83;;;;;;;15.76;100.00;101902.25;4998586;28;20199;-74
2023/07/11 01:37:31;;;;;;;6.90;3.83;;;;;;;15.79;100.00;101898.00;4974258;28;20238;-74
2023/07/11 01:39:56;;;;;;;5.67;4.20;;;;;;;15.76;100.00;101900.53;4987446;28;20243;-75
2023/07/11 01:42:23;;;;;;;8.77;4.07;;;;;;;15.73;100.00;101895.31;4977748;28;20216;-74
2023/07/11 01:44:49;;;;;;;5.37;3.43;;;;;;;15.67;100.00;101894.34;4990739;28;20887;-75
2023/07/11 01:47:15;;;;;;;5.63;3.63;;;;;;;15.66;100.00;101890.88;4989902;28;20188;-74
2023/07/11 01:49:40;;;;;;;6.93;3.47;;;;;;;15.66;100.00;101892.63;4993151;28;20223;-74
2023/07/11 01:52:19;;;;;;;5.27;3.63;;;;;;;15.61;100.00;101897.69;4994687;28;20235;-74
2023/07/11 01:54:45;;;;;;;5.20;3.13;;;;;;;15.61;100.00;101889.94;4988439;28;20208;-74
2023/07/11 01:57:10;;;;;;;7.40;3.30;;;;;;;15.54;100.00;101890.72;4979975;28;20246;-74
2023/07/11 01:59:37;;;;;;;6.33;3.60;;;;;;;15.56;100.00;101889.00;4979319;28;20689;-74
2023/07/11 02:02:03;;;;;;;4.27;3.30;;;;;;;15.56;100.00;101889.00;4985324;28;20262;-75
2023/07/11 02:04:29;;;;;;;5.63;3.00;;;;;;;15.56;100.00;101886.44;4985612;28;20305;-74
2023/07/11 02:06:55;;;;;;;6.13;3.33;;;;;;;15.54;100.00;101882.09;4982289;28;20246;-74
2023/07/11 02:09:21;;;;;;;4.87;3.83;;;;;;;15.49;100.00;101881.16;4995901;28;20216;-75
2023/07/11 02:11:48;;;;;;;7.47;3.80;;;;;;;15.46;100.00;101881.97;4975694;28;20195;-74
2023/07/11 02:14:18;;;;;;;4.43;3.33;;;;;;;15.46;100.00;101881.97;4974325;28;20195;-74
2023/07/11 02:16:44;;;;;;;4.73;3.77;;;;;;;15.45;100.00;101880.25;4976973;28;20255;-74
2023/07/11 02:19:15;;;;;;;7.70;3.80;;;;;;;15.41;100.00;101872.41;5000029;28;20298;-74
2023/07/11 02:21:41;;;;;;;7.33;3.90;;;;;;;15.39;100.00;101871.53;4963258;28;20218;-74
2023/07/11 02:24:09;;;;;;;6.23;4.07;;;;;;;15.35;100.00;101875.78;4998001;28;20220;-75
2023/07/11 02:26:35;;;;;;;8.90;4.37;;;;;;;15.31;100.00;101867.91;4982359;28;20192;-74
2023/07/11 02:29:01;;;;;;;5.90;3.80;;;;;;;15.26;100.00;101865.28;4981052;28;20296;-74
2023/07/11 02:31:26;;;;;;;7.23;3.80;;;;;;;15.27;100.00;101868.69;4979004;28;20247;-74
2023/07/11 02:33:53;;;;;;;7.33;3.60;;;;;;;15.27;100.00;101872.16;4986297;28;20200;-74
2023/07/11 02:36:19;;;;;;;6.67;3.23;;;;;;;15.26;100.00;101874.72;4982614;28;20196;-74
2023/07/11 02:38:44;;;;;;;5.57;4.00;;;;;;;15.26;100.00;101865.28;4977478;28;20682;-74
2023/07/11 02:41:10;;;;;;;6.33;3.30;;;;;;;15.25;100.00;101871.28;4982447;28;20199;-74
2023/07/11 02:43:35;;;;;;;5.50;3.40;;;;;;;15.25;100.00;101871.28;4977053;28;20200;-74
2023/07/11 02:46:01;;;;;;;7.67;3.73;;;;;;;15.17;100.00;101859.06;4976724;28;20573;-75
2023/07/11 02:48:26;;;;;;;6.70;3.37;;;;;;;15.14;100.00;101864.19;4985261;28;20215;-74
2023/07/11 02:50:52;;;;;;;5.83;3.57;;;;;;;15.14;100.00;101866.78;4989297;28;20279;-75
2023/07/11 02:53:17;;;;;;;6.13;3.57;;;;;;;15.10;100.00;101865.81;4986960;28;20287;-74
2023/07/11 02:55:43;;;;;;;8.17;4.23;;;;;;;15.13;100.00;101865.00;4989042;28;20203;-74
2023/07/11 02:58:10;;;;;;;8.50;4.00;;;;;;;15.10;100.00;101862.41;4982896;28;20191;-74
2023/07/11 03:00:36;;;;;;;5.83;3.67;;;;;;;15.09;100.00;101868.38;4974620;28;20850;-75
2023/07/11 03:03:01;;;;;;;6.60;4.00;;;;;;;15.07;100.00;101859.75;4978137;28;20270;-74
2023/07/11 03:05:27;;;;;;;6.60;4.03;;;;;;;15.05;100.00;101861.44;4996147;28;20568;-74
2023/07/11 03:07:52;;;;;;;5.67;3.83;;;;;;;15.03;100.00;101860.53;4987355;28;20218;-75
2023/07/11 03:10:18;;;;;;;4.97;3.53;;;;;;;15.01;100.00;101849.34;4989033;28;20221;-74
2023/07/11 03:12:43;;;;;;;6.13;3.90;;;;;;;14.99;100.00;101849.31;4975073;28;20200;-75
2023/07/11 03:15:09;;;;;;;7.63;4.63;;;;;;;14.99;100.00;101848.44;4973444;28;20715;-75
2023/07/11 03:17:34;;;;;;;6.80;4.50;;;;;;;14.99;100.00;101851.00;4981294;28;20218;-75
2023/07/11 03:20:00;;;;;;;7.67;4.37;;;;;;;14.98;100.00;101857.00;4980719;28;20219;-75
2023/07/11 03:22:26;;;;;;;7.33;4.77;;;;;;;14.94;100.00;101850.94;4986988;28;20186;-75
2023/07/11 03:24:51;;;;;;;7.77;4.53;;;;;;;14.97;100.00;101852.69;4983292;28;20211;-74
2023/07/11 03:27:17;;;;;;;7.93;4.07;;;;;;;14.94;100.00;101847.47;4980275;28;20720;-74
2023/07/11 03:29:42;;;;;;;6.40;4.07;;;;;;;14.94;100.00;101850.06;4979816;28;20219;-74
2023/07/11 03:32:09;;;;;;;7.30;4.27;;;;;;;14.97;100.00;101844.97;4994967;28;20291;-75
2023/07/11 03:34:35;;;;;;;6.77;4.50;;;;;;;14.98;100.00;101836.38;4990849;28;20804;-75
2023/07/11 03:37:00;;;;;;;7.53;4.63;;;;;;;14.96;100.00;101828.59;4982090;28;20287;-74
2023/07/11 03:39:26;;;;;;;7.57;4.47;;;;;;;14.98;100.00;101820.91;4987116;28;20296;-74
2023/07/11 03:41:51;;;;;;;9.47;4.93;;;;;;;15.02;100.00;101817.53;4989450;28;20209;-74
2023/07/11 03:44:17;;;;;;;9.03;5.07;;;;;;;15.00;100.00;101816.63;4977777;28;20284;-74
2023/07/11 03:46:43;;;;;;;8.67;4.57;;;;;;;15.02;100.00;101821.00;4980207;28;20547;-74
2023/07/11 03:49:09;;;;;;;10.33;5.20;;;;;;;15.06;100.00;101814.16;4982674;28;20266;-74
2023/07/11 03:51:34;;;;;;;9.83;4.70;;;;;;;15.02;100.00;101808.09;4988363;28;20633;-75
2023/07/11 03:54:00;;;;;;;9.57;4.70;;;;;;;15.05;100.00;101810.72;4980866;28;20292;-74
2023/07/11 03:56:27;;;;;;;11.37;4.40;;;;;;;15.10;100.00;101813.38;4986733;28;20571;-75
2023/07/11 03:58:52;;;;;;;6.90;4.40;;;;;;;15.13;100.00;101805.66;4976908;28;20693;-74
2023/07/11 04:01:18;;;;;;;9.80;4.47;;;;;;;15.15;100.00;101804.00;4985878;28;20241;-74
2023/07/11 04:03:43;;;;;;;9.40;4.67;;;;;;;15.19;100.00;101803.22;4980549;28;20220;-74
2023/07/11 04:06:09;;;;;;;7.13;4.63;;;;;;;15.27;100.00;101796.44;4983472;28;20204;-74
2023/07/11 04:08:35;;;;;;;11.33;4.97;;;;;;;15.33;100.00;101799.13;4990307;28;20207;-74
2023/07/11 04:11:01;;;;;;;9.50;4.77;;;;;;;15.41;100.00;101792.38;4980738;28;20200;-74
2023/07/11 04:13:26;;;;;;;7.67;4.40;;;;;;;15.43;100.00;101796.72;4982829;28;20199;-75
2023/07/11 04:15:52;;;;;;;10.37;4.70;;;;;;;15.56;100.00;101792.63;4975882;28;20206;-74
2023/07/11 04:18:18;;;;;;;8.60;4.63;;;;;;;15.68;100.00;101790.22;4985586;28;20191;-74
2023/07/11 04:20:45;;;;;;;8.13;4.43;;;;;;;15.77;100.00;101786.06;4979323;28;20252;-75
2023/07/11 04:23:11;;;;;;;8.43;4.07;;;;;;;15.83;100.00;101788.69;4985604;28;20195;-74
2023/07/11 04:25:37;;;;;;;12.13;4.57;;;;;;;15.92;100.00;101788.81;4984158;28;21189;-74
2023/07/11 04:28:04;;;;;;;8.00;4.77;;;;;;;15.98;100.00;101800.97;4966484;28;20188;-75
2023/07/11 04:30:30;;;;;;;9.90;4.77;;;;;;;16.04;100.00;101796.75;4979190;28;20235;-75
2023/07/11 04:32:55;;;;;;;8.20;4.20;;;;;;;16.07;100.00;101785.56;4980982;28;20196;-75
2023/07/11 04:35:21;;;;;;;11.77;4.87;;;;;;;16.09;100.00;101789.03;4987251;28;20205;-75
2023/07/11 04:37:46;;;;;;;10.83;4.60;;;;;;;16.12;100.00;101786.50;4984748;28;20842;-75
2023/07/11 04:40:12;;;;;;;10.33;4.93;;;;;;;16.12;100.00;101784.75;4982642;28;20747;-74
2023/07/11 04:42:37;;;;;;;7.73;5.17;;;;;;;16.14;100.00;101777.91;4984303;28;20241;-75
2023/07/11 04:45:04;;;;;;;12.10;4.70;;;;;;;16.18;100.00;101777.09;4985249;28;20256;-74
2023/07/11 04:47:30;;;;;;;9.23;4.90;;;;;;;16.17;100.00;101779.66;4994871;28;20191;-75
2023/07/11 04:49:55;;;;;;;9.83;5.30;;;;;;;16.29;100.00;101772.03;4983077;28;20215;-75
2023/07/11 04:52:21;;;;;;;11.43;5.03;;;;;;;16.38;100.00;101783.34;4983034;28;20720;-74
2023/07/11 04:54:46;;;;;;;7.33;4.80;;;;;;;16.45;100.00;101773.97;4983105;28;20194;-75
2023/07/11 04:57:12;;;;;;;6.17;4.93;;;;;;;16.53;100.00;101777.53;4995346;28;20278;-75
2023/07/11 04:59:37;;;;;;;10.27;4.87;;;;;;;16.62;100.00;101775.88;4988560;28;20219;-75
2023/07/11 05:02:03;;;;;;;6.90;4.90;;;;;;;16.66;100.00;101769.88;4988905;28;20196;-74
2023/07/11 05:04:28;;;;;;;6.73;4.10;;;;;;;16.78;100.00;101764.84;4992756;28;20225;-75
2023/07/11 05:06:54;;;;;;;10.93;4.53;;;;;;;16.92;100.00;101767.53;4982914;28;20196;-74
2023/07/11 05:09:19;;;;;;;13.03;4.37;;;;;;;17.02;100.00;101770.22;4989281;28;20290;-74
2023/07/11 05:11:44;;;;;;;8.87;5.33;;;;;;;17.17;100.00;101772.06;4980117;28;20571;-75
2023/07/11 05:14:10;;;;;;;9.83;4.27;;;;;;;17.29;100.00;101766.94;4988447;28;20198;-74
2023/07/11 05:16:35;;;;;;;9.60;3.90;;;;;;;17.25;100.00;101766.06;4972120;28;20357;-75
2023/07/11 05:19:01;;;;;;;7.00;4.13;;;;;;;17.37;100.00;101760.13;4987703;28;20281;-74
2023/07/11 05:21:27;;;;;;;10.53;4.90;;;;;;;17.41;100.00;101760.16;4987124;28;20278;-72
2023/07/11 05:23:55;;;;;;;10.97;4.43;;;;;;;17.57;100.00;101759.41;4992145;28;20216;-74
2023/07/11 05:26:21;;;;;;;8.53;3.70;;;;;;;17.65;100.00;101760.31;4987464;28;20203;-74
2023/07/11 05:28:46;;;;;;;5.57;3.60;;;;;;;17.72;100.00;101756.00;4982209;28;20224;-74
2023/07/11 05:31:12;;;;;;;8.17;4.30;;;;;;;17.83;100.00;101755.22;4985703;28;20208;-74
2023/07/11 05:33:37;;;;;;;6.97;3.93;;;;;;;17.91;100.00;101756.13;4984614;28;20299;-74
2023/07/11 05:38:53;;;;;;;7.90;4.30;;;;;;;17.99;100.00;101748.38;4985449;28;20219;-74
2023/07/11 05:41:20;;;;;;;7.83;4.27;;;;;;;18.20;100.00;101754.47;4978479;28;20202;-74
2023/07/11 05:43:46;;;;;;;10.27;4.47;;;;;;;18.35;100.00;101745.94;4981066;28;20216;-75
2023/07/11 05:46:12;;;;;;;8.07;4.00;;;;;;;18.44;100.00;101744.22;4978690;28;20197;-74
2023/07/11 05:48:37;;;;;;;7.00;3.60;;;;;;;18.62;100.00;101741.66;4986812;28;20576;-74
2023/07/11 05:51:09;;;;;;;8.03;3.97;;;;;;;18.70;100.00;101734.72;4979478;28;20188;-74
2023/07/11 05:53:35;;;;;;;7.43;3.50;;;;;;;18.89;100.00;101728.66;4990146;28;20639;-74
2023/07/11 05:56:00;;;;;;;8.30;3.67;;;;;;;18.99;100.00;101713.97;4983359;28;20192;-74
2023/07/11 05:58:28;;;;;;;6.60;3.50;;;;;;;19.02;100.00;101714.81;4986913;28;20223;-74
2023/07/11 06:00:54;;;;;;;7.27;3.70;;;;;;;19.12;100.00;101710.50;4978360;28;20202;-74
2023/07/11 06:03:22;;;;;;;6.43;3.93;;;;;;;19.16;100.00;101710.47;4992575;28;20212;-74
2023/07/11 06:05:48;;;;;;;6.87;3.57;;;;;;;19.39;100.00;101700.09;4987580;28;20310;-74
2023/07/11 06:08:14;;;;;;;9.00;3.27;;;;;;;19.45;100.00;101700.94;4989552;28;20665;-74
2023/07/11 06:10:39;;;;;;;4.63;3.27;;;;;;;19.54;100.00;101690.50;4981899;28;20755;-74
2023/07/11 06:13:05;;;;;;;5.97;2.63;;;;;;;19.73;100.00;101680.88;4989243;28;20196;-74
2023/07/11 06:15:31;;;;;;;6.77;2.90;;;;;;;19.93;100.00;101664.31;4987303;28;20764;-74
2023/07/11 06:17:56;;;;;;;7.47;3.00;;;;;;;20.00;100.00;101665.16;4986194;28;20196;-74
2023/07/11 06:20:23;;;;;;;6.83;2.90;;;;;;;20.27;100.00;101652.84;4978034;28;20299;-74
2023/07/11 06:22:48;;;;;;;6.57;2.77;;;;;;;20.27;100.00;101633.78;4988125;28;20203;-74
2023/07/11 06:25:13;;;;;;;6.63;2.70;;;;;;;20.47;100.00;101639.69;4980465;28;20694;-74
2023/07/11 06:27:39;;;;;;;6.63;2.33;;;;;;;20.55;100.00;101607.50;4980187;28;20246;-74
2023/07/11 06:30:05;;;;;;;5.37;2.53;;;;;;;20.83;100.00;101614.19;4977787;28;20674;-74
2023/07/11 06:32:30;;;;;;;4.60;2.30;;;;;;;20.89;100.00;101577.69;4984241;28;20905;-74
2023/07/11 06:34:56;;;;;;;4.60;2.43;;;;;;;20.95;100.00;101572.44;4978191;28;20202;-74
2023/07/11 06:37:21;;;;;;;4.10;2.23;;;;;;;21.02;100.00;101541.97;4986316;28;20206;-74
2023/07/11 06:39:47;;;;;;;5.00;2.30;;;;;;;21.19;100.00;101538.25;4980636;28;20211;-74
2023/07/11 06:42:12;;;;;;;5.67;2.50;;;;;;;21.26;100.00;101539.03;4979062;28;20200;-74
2023/07/11 06:44:38;;;;;;;3.40;2.03;;;;;;;21.42;100.00;101527.56;4980172;28;20211;-74
2023/07/11 06:47:04;;;;;;;5.93;2.47;;;;;;;21.52;100.00;101534.34;4977246;28;20192;-74
2023/07/11 06:49:30;;;;;;;7.90;2.50;;;;;;;21.59;100.00;101533.38;4983707;28;20218;-74
2023/07/11 06:51:55;;;;;;;5.57;2.00;;;;;;;21.71;100.00;101525.41;4983895;28;20215;-74
2023/07/11 06:54:21;;;;;;;4.50;2.27;;;;;;;21.76;100.00;101518.38;4979573;28;20669;-74
2023/07/11 06:56:46;;;;;;;4.07;2.10;;;;;;;21.95;100.00;101505.03;4978719;28;20250;-74
2023/07/11 06:59:19;;;;;;;4.83;2.03;;;;;;;22.07;100.00;101496.97;4979202;28;20264;-74
2023/07/11 07:01:45;;;;;;;3.17;2.07;;;;;;;22.40;100.00;101492.91;4992500;28;20625;-74
2023/07/11 07:04:13;;;;;;;4.83;2.20;;;;;;;22.53;100.00;101485.75;4978390;28;20295;-75
2023/07/11 07:06:39;;;;;;;4.20;2.00;;;;;;;22.67;100.00;101474.16;4977747;28;20214;-74
2023/07/11 07:09:05;;;;;;;5.70;2.40;;;;;;;22.62;100.00;101456.84;4973243;28;20215;-74
2023/07/11 07:11:30;;;;;;;5.43;2.27;;;;;;;22.76;100.00;101470.47;4977598;28;20203;-74
2023/07/11 07:13:56;;;;;;;5.83;2.50;;;;;;;23.08;100.00;101460.22;4980305;28;20318;-75
2023/07/11 07:16:21;;;;;;;7.07;2.00;;;;;;;23.17;100.00;101447.81;4978588;28;20254;-74
2023/07/11 07:18:47;;;;;;;6.30;2.10;;;;;;;23.15;100.00;101431.28;4975803;28;20208;-74
2023/07/11 07:21:12;;;;;;;4.80;2.10;;;;;;;23.46;100.00;101440.19;4975608;28;20196;-74
2023/07/11 07:23:37;;;;;;;6.67;2.37;;;;;;;23.64;100.00;101428.41;4981242;28;20208;-75
2023/07/11 07:26:04;;;;;;;5.77;2.00;;;;;;;23.72;100.00;101408.16;4988377;28;20203;-75
2023/07/11 07:28:31;;;;;;;3.87;1.90;;;;;;;23.69;99.65;101395.16;4981505;28;20613;-75
2023/07/11 07:30:58;;;;;;;5.90;2.20;;;;;;;23.84;100.00;101406.09;4976570;28;20271;-75
2023/07/11 07:33:25;;;;;;;3.93;1.83;;;;;;;23.71;100.00;101417.75;4978501;28;20207;-74
2023/07/11 07:35:57;;;;;;;3.97;1.70;;;;;;;23.78;100.00;101418.47;4972607;28;20284;-75
2023/07/11 07:38:22;;;;;;;4.60;2.10;;;;;;;23.71;100.00;101402.06;4984182;28;20207;-74
2023/07/11 07:40:52;;;;;;;4.87;1.83;;;;;;;23.82;95.09;101389.56;4978841;28;20291;-75
2023/07/11 07:43:17;;;;;;;3.03;1.70;;;;;;;23.91;97.36;101399.84;4977796;28;20192;-74
2023/07/11 07:45:48;;;;;;;4.53;1.80;;;;;;;23.99;96.01;101381.31;4972203;28;20212;-75
2023/07/11 07:48:13;;;;;;;4.38;1.80;;;;;;;24.36;96.33;101388.09;4974966;28;20234;-75
2023/07/11 07:50:38;;;;;;;3.35;1.88;;;;;;;24.55;97.94;101391.94;4973451;28;20248;-74
2023/07/11 07:53:04;;;;;;;4.32;1.83;;;;;;;24.58;97.05;101380.50;4970851;28;20207;-74
2023/07/11 07:55:29;;;;;;;4.72;2.08;;;;;;;24.51;92.26;101365.84;4979086;28;20270;-72
2023/07/11 07:57:55;;;;;;;3.30;1.65;;;;;;;24.65;93.18;101366.34;4986488;28;20200;-73
2023/07/11 08:00:20;;;;;;;6.35;2.15;;;;;;;24.87;95.00;101370.88;4973765;28;20220;-74
2023/07/11 08:02:53;;;;;;;4.80;2.10;;;;;;;25.06;91.34;101361.56;4987641;28;20183;-73
2023/07/11 08:05:20;;;;;;;4.63;2.25;;;;;;;24.65;90.98;101359.34;4975918;28;20709;-74
2023/07/11 08:07:45;;;;;;;4.93;2.10;;;;;;;24.79;90.64;101354.56;4977382;28;20192;-73
2023/07/11 08:10:11;;;;;;;3.50;1.80;;;;;;;24.93;91.31;101365.47;4976081;28;20286;-73
2023/07/11 08:12:36;;;;;;;4.05;2.20;;;;;;;24.72;88.62;101339.91;4978818;28;20199;-74
2023/07/11 08:15:03;;;;;;;3.25;1.70;;;;;;;25.24;89.67;101353.06;4975513;28;20247;-73
2023/07/11 08:17:29;;;;;;;6.90;2.50;;;;;;;25.26;87.71;101347.78;4978385;28;20208;-73
2023/07/11 08:19:54;;;;;;;5.15;2.35;;;;;;;25.55;88.08;101350.34;4972119;28;20227;-74
2023/07/11 08:22:20;;;;;;;5.15;2.20;;;;;;;25.39;85.88;101344.75;4990783;28;20196;-74
2023/07/11 08:24:45;;;;;;;3.97;1.73;;;;;;;25.45;87.72;101348.91;4979251;28;20242;-74
2023/07/11 08:27:11;;;;;;;4.65;1.80;;;;;;;25.37;87.22;101343.09;4976640;28;20204;-74
2023/07/11 08:29:40;;;;;;;4.10;1.73;;;;;;;25.68;85.01;101330.63;4982041;28;20223;-74
2023/07/11 08:32:06;;;;;;;3.55;1.63;;;;;;;25.60;81.15;101316.94;4973397;28;20227;-74
2023/07/11 08:34:32;;;;;;;3.67;1.75;;;;;;;25.62;80.08;101312.47;4977816;28;20270;-74
2023/07/11 08:36:58;;;;;;;3.58;1.73;;;;;;;25.87;80.39;101319.44;4977135;28;20191;-74
2023/07/11 08:39:23;;;;;;;7.03;2.15;;;;;;;25.94;76.71;101310.47;4982611;28;20219;-74
2023/07/11 08:41:51;;;;;;;4.82;1.95;;;;;;;26.09;73.62;101291.53;4977747;28;20298;-74
2023/07/11 08:44:24;;;;;;;3.10;1.92;;;;;;;26.23;78.02;101304.13;4976434;28;20216;-74
2023/07/11 08:47:01;;;;;;;3.70;1.83;;;;;;;26.31;76.26;101295.06;4977300;28;20548;-74
2023/07/11 08:49:38;;;;;;;5.38;2.22;;;;;;;26.50;74.71;101292.59;4966513;28;20231;-74
2023/07/11 08:52:07;;;;;;;3.15;2.10;;;;;;;26.27;73.22;101282.97;4974202;28;20191;-74
2023/07/11 08:54:59;;;;;;;5.50;1.95;;;;;;;26.40;75.01;101292.09;4984237;28;20191;-73
2023/07/11 08:57:29;;;;;;;3.70;2.10;;;;;;;26.39;67.97;101276.38;4978103;28;20211;-74
2023/07/11 09:00:06;;;;;;;6.03;2.00;;;;;;;26.74;69.54;101282.00;4986116;28;20580;-74
2023/07/11 09:02:56;;;;;;;4.03;1.60;;;;;;;26.74;68.11;101276.75;4973313;28;20232;-74
2023/07/11 09:05:40;;;;;;;3.60;1.83;;;;;;;26.74;63.61;101253.09;4972108;28;20224;-73
2023/07/11 09:08:13;;;;;;;4.95;1.90;;;;;;;26.79;64.35;101256.38;4981966;28;20277;-73
2023/07/11 09:11:06;;;;;;;3.58;1.75;;;;;;;26.78;64.66;101266.94;4979009;28;20243;-74
2023/07/11 09:14:13;;;;;;;2.92;1.80;;;;;;;27.11;63.20;101258.53;4985189;28;20229;-73
2023/07/11 09:16:52;;;;;;;3.70;1.63;;;;;;;27.56;59.83;101245.22;4949408;28;20863;-74
2023/07/11 09:19:48;;;;;;;4.10;2.10;;;;;;;27.47;59.64;101246.50;4977876;28;20236;-74
2023/07/11 09:22:45;;;;;;;2.13;1.75;;;;;;;27.69;59.74;101243.75;4978107;28;20204;-74
2023/07/11 09:25:21;;;;;;;2.42;1.85;;;;;;;28.01;59.00;101232.66;4978907;28;20220;-73
2023/07/11 09:28:05;;;;;;;2.83;1.58;;;;;;;28.08;56.80;101227.03;4981655;28;20672;-74
2023/07/11 09:30:37;;;;;;;6.15;1.90;;;;;;;27.78;59.17;101246.84;4994753;28;20247;-74
2023/07/11 09:33:32;;;;;;;3.13;2.00;;;;;;;27.88;55.16;101234.13;4994681;28;20208;-75
2023/07/11 09:36:00;;;;;;;4.43;1.80;;;;;;;28.18;53.67;101211.66;4975555;28;20271;-73
2023/07/11 09:38:31;;;;;;;3.88;1.80;;;;;;;28.46;52.92;101214.72;4977601;28;20200;-73
2023/07/11 09:41:13;;;;;;;4.82;2.20;;;;;;;28.00;52.42;101221.25;4978619;28;20218;-74
2023/07/11 09:43:39;;;;;;;5.20;1.83;;;;;;;28.13;53.24;101226.84;4980292;28;20648;-73
2023/07/11 09:46:12;;;;;;;3.72;1.92;;;;;;;28.05;50.58;101207.88;4980665;28;20203;-73
2023/07/11 09:48:38;;;;;;;3.25;1.70;;;;;;;28.05;50.30;101197.34;4974485;28;20234;-73
2023/07/11 09:51:26;;;;;;;3.35;1.80;;;;;;;28.66;50.26;101198.78;4975533;28;20232;-73
2023/07/11 09:53:53;;;;;;;3.00;1.90;;;;;;;28.79;50.12;101197.25;4978245;28;20555;-73
2023/07/11 09:56:20;;;;;;;7.05;1.90;;;;;;;28.50;49.25;101189.94;4960585;28;20208;-73
2023/07/11 09:58:48;;;;;;;3.03;1.70;;;;;;;28.60;46.46;101167.44;4977367;28;21011;-73
2023/07/11 10:01:36;;;;;;;2.70;1.70;;;;;;;28.63;44.74;101154.09;4973051;28;20204;-73
2023/07/11 10:04:06;;;;;;;4.30;1.90;;;;;;;28.83;45.58;101169.78;4983740;28;20259;-73
2023/07/11 10:06:41;;;;;;;4.80;1.50;;;;;;;28.62;45.95;101163.81;4975144;28;20200;-73
2023/07/11 10:09:17;;;;;;;3.13;1.83;;;;;;;28.84;46.14;101172.38;4979145;28;20760;-74
2023/07/11 10:12:04;;;;;;;3.30;1.80;;;;;;;28.52;47.97;101188.94;4981070;28;20565;-74
2023/07/11 10:14:41;;;;;;;2.55;1.70;;;;;;;29.05;47.83;101202.09;4972658;28;20197;-73
2023/07/11 10:17:20;;;;;;;3.60;2.00;;;;;;;28.75;46.55;101164.03;4984918;28;20219;-73
2023/07/11 10:19:53;;;;;;;4.78;1.88;;;;;;;28.86;46.55;101173.13;4976476;28;20223;-73
2023/07/11 10:22:23;;;;;;;4.63;1.80;;;;;;;29.41;45.73;101153.53;4975174;28;20207;-73
2023/07/11 10:24:50;;;;;;;5.03;1.92;;;;;;;29.29;47.29;101170.00;4990191;28;20226;-73
2023/07/11 10:27:27;;;;;;;5.22;1.92;;;;;;;29.11;44.57;101126.09;4987881;28;20199;-74
2023/07/11 10:29:56;;;;;;;4.53;1.85;;;;;;;28.93;45.57;101147.28;4983987;28;20223;-72
2023/07/11 10:32:45;;;;;;;3.90;2.50;;;;;;;28.75;43.52;101128.00;4980930;28;20208;-73
2023/07/11 10:35:17;;;;;;;3.17;1.85;;;;;;;28.82;44.42;101141.69;4979551;28;20200;-73
2023/07/11 10:37:48;;;;;;;5.38;2.15;;;;;;;28.71;45.36;101136.13;4978131;28;20553;-73
2023/07/11 10:40:19;;;;;;;9.52;1.98;;;;;;;29.24;44.50;101131.59;4980901;28;20220;-73
2023/07/11 10:42:59;;;;;;;2.92;1.92;;;;;;;28.81;44.84;101138.22;4978016;28;20200;-72
2023/07/11 10:45:28;;;;;;;3.38;2.05;;;;;;;28.72;44.86;101137.81;4992872;28;20703;-73
2023/07/11 10:48:10;;;;;;;2.08;1.80;;;;;;;28.98;45.22;101147.94;4981245;28;20192;-73
2023/07/11 10:50:43;;;;;;;4.22;2.20;;;;;;;28.52;45.16;101133.56;4982623;28;20224;-73
2023/07/11 10:53:23;;;;;;;4.38;2.00;;;;;;;29.20;45.83;101135.34;4986485;28;20193;-73
2023/07/11 10:55:57;;;;;;;5.32;2.10;;;;;;;28.82;45.59;101137.28;4981399;28;20656;-73
2023/07/11 10:58:23;;;;;;;3.38;1.85;;;;;;;29.22;44.95;101129.03;4980609;28;20227;-72
2023/07/11 11:00:51;;;;;;;5.65;2.20;;;;;;;29.46;44.00;101090.78;4984416;28;20580;-72
2023/07/11 11:03:32;;;;;;;2.95;2.00;;;;;;;29.21;45.65;101132.63;4989474;28;21007;-72
2023/07/11 11:06:13;;;;;;;5.40;2.25;;;;;;;28.80;44.65;101109.28;4975596;28;20223;-73
2023/07/11 11:08:48;;;;;;;4.50;2.20;;;;;;;29.33;44.37;101102.91;4985843;28;20257;-72
2023/07/11 11:11:32;;;;;;;7.55;2.50;;;;;;;28.87;46.11;101140.53;4976378;28;20202;-73
2023/07/11 11:14:13;;;;;;;9.02;2.30;;;;;;;28.86;46.45;101130.06;4985020;28;20733;-72
2023/07/11 11:16:47;;;;;;;2.47;1.98;;;;;;;29.52;46.24;101121.28;4974219;28;20202;-72
2023/07/11 11:19:36;;;;;;;5.63;2.25;;;;;;;29.89;44.12;101070.78;4973995;28;20226;-72
2023/07/11 11:22:14;;;;;;;4.65;2.22;;;;;;;29.80;43.56;101064.22;4984984;28;20234;-73
2023/07/11 11:24:52;;;;;;;3.70;2.25;;;;;;;30.00;44.58;101093.03;4992990;28;20836;-72
2023/07/11 11:27:41;;;;;;;3.08;2.05;;;;;;;29.74;44.12;101064.56;4983044;28;20220;-73
2023/07/11 11:30:16;;;;;;;3.53;2.15;;;;;;;29.71;45.52;101092.97;4974783;28;20705;-72